sensor_id;sensor_type;location;lat;lon;timestamp;P1;durP1;ratioP1;P2;durP2;ratioP2
14754;SDS011;7469;50.906;6.952;2022-07-25T00:00:07;8.17;;;5.87;;
14754;SDS011;7469;50.906;6.952;2022-07-25T00:02:39;6.43;;;5.73;;
14754;SDS011;7469;50.906;6.952;2022-07-25T00:05:07;6.63;;;5.53;;
14754;SDS011;7469;50.906;6.952;2022-07-25T00:07:36;6.63;;;5.63;;
14754;SDS011;7469;50.906;6.952;2022-07-25T00:10:05;6.27;;;5.70;;
14754;SDS011;7469;50.906;6.952;2022-07-25T00:12:34;6.27;;;5.63;;
14754;SDS011;7469;50.906;6.952;2022-07-25T00:15:02;6.20;;;5.60;;
14754;SDS011;7469;50.906;6.952;2022-07-25T00:17:31;9.30;;;5.83;;
14754;SDS011;7469;50.906;6.952;2022-07-25T00:19:59;8.83;;;5.90;;
14754;SDS011;7469;50.906;6.952;2022-07-25T00:22:27;8.60;;;5.60;;
14754;SDS011;7469;50.906;6.952;2022-07-25T00:24:57;8.43;;;5.87;;
14754;SDS011;7469;50.906;6.952;2022-07-25T00:27:25;7.70;;;5.60;;
14754;SDS011;7469;50.906;6.952;2022-07-25T00:29:53;7.23;;;5.80;;
14754;SDS011;7469;50.906;6.952;2022-07-25T00:32:21;7.90;;;5.63;;
14754;SDS011;7469;50.906;6.952;2022-07-25T00:34:49;8.00;;;5.83;;
14754;SDS011;7469;50.906;6.952;2022-07-25T00:37:17;9.93;;;6.33;;
14754;SDS011;7469;50.906;6.952;2022-07-25T00:39:45;7.20;;;5.27;;
14754;SDS011;7469;50.906;6.952;2022-07-25T00:42:14;7.43;;;6.00;;
14754;SDS011;7469;50.906;6.952;2022-07-25T00:44:43;13.03;;;5.90;;
14754;SDS011;7469;50.906;6.952;2022-07-25T00:47:11;8.83;;;5.13;;
14754;SDS011;7469;50.906;6.952;2022-07-25T00:49:39;6.30;;;5.70;;
14754;SDS011;7469;50.906;6.952;2022-07-25T00:52:07;6.77;;;6.00;;
14754;SDS011;7469;50.906;6.952;2022-07-25T00:54:35;11.03;;;6.30;;
14754;SDS011;7469;50.906;6.952;2022-07-25T00:57:03;7.83;;;5.30;;
14754;SDS011;7469;50.906;6.952;2022-07-25T00:59:33;6.87;;;6.20;;
14754;SDS011;7469;50.906;6.952;2022-07-25T01:02:01;9.77;;;6.00;;
14754;SDS011;7469;50.906;6.952;2022-07-25T01:04:29;7.03;;;6.33;;
14754;SDS011;7469;50.906;6.952;2022-07-25T01:06:58;8.20;;;5.47;;
14754;SDS011;7469;50.906;6.952;2022-07-25T01:09:26;9.13;;;6.43;;
14754;SDS011;7469;50.906;6.952;2022-07-25T01:11:55;6.90;;;6.13;;
14754;SDS011;7469;50.906;6.952;2022-07-25T01:14:23;6.33;;;5.73;;
14754;SDS011;7469;50.906;6.952;2022-07-25T01:16:52;7.90;;;5.97;;
14754;SDS011;7469;50.906;6.952;2022-07-25T01:19:20;7.10;;;5.60;;
14754;SDS011;7469;50.906;6.952;2022-07-25T01:21:49;8.47;;;6.00;;
14754;SDS011;7469;50.906;6.952;2022-07-25T01:24:17;11.20;;;6.00;;
14754;SDS011;7469;50.906;6.952;2022-07-25T01:26:45;7.13;;;5.70;;
14754;SDS011;7469;50.906;6.952;2022-07-25T01:29:13;6.40;;;5.80;;
14754;SDS011;7469;50.906;6.952;2022-07-25T01:31:41;6.20;;;5.57;;
14754;SDS011;7469;50.906;6.952;2022-07-25T01:34:09;8.87;;;6.20;;
14754;SDS011;7469;50.906;6.952;2022-07-25T01:36:37;6.30;;;5.70;;
14754;SDS011;7469;50.906;6.952;2022-07-25T01:39:07;6.33;;;5.60;;
14754;SDS011;7469;50.906;6.952;2022-07-25T01:41:35;8.40;;;6.00;;
14754;SDS011;7469;50.906;6.952;2022-07-25T01:44:03;12.17;;;6.03;;
14754;SDS011;7469;50.906;6.952;2022-07-25T01:46:32;6.13;;;5.53;;
14754;SDS011;7469;50.906;6.952;2022-07-25T01:49:00;8.20;;;6.37;;
14754;SDS011;7469;50.906;6.952;2022-07-25T01:51:28;6.67;;;6.07;;
14754;SDS011;7469;50.906;6.952;2022-07-25T01:53:56;7.40;;;6.20;;
14754;SDS011;7469;50.906;6.952;2022-07-25T01:56:26;6.43;;;5.80;;
14754;SDS011;7469;50.906;6.952;2022-07-25T01:58:57;7.00;;;6.30;;
14754;SDS011;7469;50.906;6.952;2022-07-25T02:01:25;13.53;;;6.60;;
14754;SDS011;7469;50.906;6.952;2022-07-25T02:03:53;6.97;;;6.00;;
14754;SDS011;7469;50.906;6.952;2022-07-25T02:06:21;6.57;;;5.87;;
14754;SDS011;7469;50.906;6.952;2022-07-25T02:08:49;7.87;;;6.43;;
14754;SDS011;7469;50.906;6.952;2022-07-25T02:11:18;10.60;;;6.53;;
14754;SDS011;7469;50.906;6.952;2022-07-25T02:13:48;6.23;;;5.60;;
14754;SDS011;7469;50.906;6.952;2022-07-25T02:16:16;7.30;;;6.10;;
14754;SDS011;7469;50.906;6.952;2022-07-25T02:18:44;7.57;;;6.20;;
14754;SDS011;7469;50.906;6.952;2022-07-25T02:21:13;7.20;;;5.90;;
14754;SDS011;7469;50.906;6.952;2022-07-25T02:23:41;7.70;;;6.27;;
14754;SDS011;7469;50.906;6.952;2022-07-25T02:26:09;7.90;;;5.80;;
14754;SDS011;7469;50.906;6.952;2022-07-25T02:28:38;7.63;;;6.33;;
14754;SDS011;7469;50.906;6.952;2022-07-25T02:31:08;8.33;;;6.37;;
14754;SDS011;7469;50.906;6.952;2022-07-25T02:33:36;7.33;;;6.00;;
14754;SDS011;7469;50.906;6.952;2022-07-25T02:36:05;9.70;;;6.00;;
14754;SDS011;7469;50.906;6.952;2022-07-25T02:38:33;8.23;;;6.67;;
14754;SDS011;7469;50.906;6.952;2022-07-25T02:41:01;8.10;;;6.33;;
14754;SDS011;7469;50.906;6.952;2022-07-25T02:43:30;10.97;;;6.33;;
14754;SDS011;7469;50.906;6.952;2022-07-25T02:45:58;10.57;;;6.57;;
14754;SDS011;7469;50.906;6.952;2022-07-25T02:48:28;7.97;;;7.20;;
14754;SDS011;7469;50.906;6.952;2022-07-25T02:50:56;7.03;;;6.33;;
14754;SDS011;7469;50.906;6.952;2022-07-25T02:53:25;7.00;;;6.30;;
14754;SDS011;7469;50.906;6.952;2022-07-25T02:56:13;6.93;;;6.23;;
14754;SDS011;7469;50.906;6.952;2022-07-25T02:58:41;7.47;;;6.40;;
14754;SDS011;7469;50.906;6.952;2022-07-25T03:01:09;9.70;;;6.30;;
14754;SDS011;7469;50.906;6.952;2022-07-25T03:03:39;8.30;;;6.43;;
14754;SDS011;7469;50.906;6.952;2022-07-25T03:06:07;6.70;;;6.10;;
14754;SDS011;7469;50.906;6.952;2022-07-25T03:08:35;9.10;;;6.87;;
14754;SDS011;7469;50.906;6.952;2022-07-25T03:11:03;10.97;;;6.00;;
14754;SDS011;7469;50.906;6.952;2022-07-25T03:13:31;7.93;;;6.40;;
14754;SDS011;7469;50.906;6.952;2022-07-25T03:15:59;12.03;;;6.33;;
14754;SDS011;7469;50.906;6.952;2022-07-25T03:18:29;7.83;;;5.90;;
14754;SDS011;7469;50.906;6.952;2022-07-25T03:20:59;10.37;;;6.90;;
14754;SDS011;7469;50.906;6.952;2022-07-25T03:23:27;7.30;;;6.20;;
14754;SDS011;7469;50.906;6.952;2022-07-25T03:25:56;9.03;;;6.30;;
14754;SDS011;7469;50.906;6.952;2022-07-25T03:28:24;8.53;;;6.30;;
14754;SDS011;7469;50.906;6.952;2022-07-25T03:30:52;7.17;;;6.47;;
14754;SDS011;7469;50.906;6.952;2022-07-25T03:33:20;8.30;;;6.70;;
14754;SDS011;7469;50.906;6.952;2022-07-25T03:35:48;7.30;;;6.60;;
14754;SDS011;7469;50.906;6.952;2022-07-25T03:38:18;7.10;;;6.37;;
14754;SDS011;7469;50.906;6.952;2022-07-25T03:40:46;7.50;;;6.40;;
14754;SDS011;7469;50.906;6.952;2022-07-25T03:43:14;8.50;;;6.33;;
14754;SDS011;7469;50.906;6.952;2022-07-25T03:45:42;7.63;;;6.40;;
14754;SDS011;7469;50.906;6.952;2022-07-25T03:48:10;6.90;;;6.20;;
14754;SDS011;7469;50.906;6.952;2022-07-25T03:50:38;6.57;;;5.97;;
14754;SDS011;7469;50.906;6.952;2022-07-25T03:53:06;9.77;;;6.97;;
14754;SDS011;7469;50.906;6.952;2022-07-25T03:55:37;7.73;;;6.67;;
14754;SDS011;7469;50.906;6.952;2022-07-25T03:58:05;8.07;;;6.70;;
14754;SDS011;7469;50.906;6.952;2022-07-25T04:00:33;8.97;;;6.83;;
14754;SDS011;7469;50.906;6.952;2022-07-25T04:03:02;8.67;;;6.47;;
14754;SDS011;7469;50.906;6.952;2022-07-25T04:05:30;7.60;;;6.90;;
14754;SDS011;7469;50.906;6.952;2022-07-25T04:07:58;9.57;;;6.40;;
14754;SDS011;7469;50.906;6.952;2022-07-25T04:10:26;7.10;;;6.40;;
14754;SDS011;7469;50.906;6.952;2022-07-25T04:12:55;7.17;;;6.47;;
14754;SDS011;7469;50.906;6.952;2022-07-25T04:15:23;8.13;;;6.17;;
14754;SDS011;7469;50.906;6.952;2022-07-25T04:17:51;8.37;;;6.47;;
14754;SDS011;7469;50.906;6.952;2022-07-25T04:20:20;9.73;;;7.07;;
14754;SDS011;7469;50.906;6.952;2022-07-25T04:22:50;6.20;;;5.63;;
14754;SDS011;7469;50.906;6.952;2022-07-25T04:25:18;6.63;;;5.77;;
14754;SDS011;7469;50.906;6.952;2022-07-25T04:27:46;7.67;;;5.97;;
14754;SDS011;7469;50.906;6.952;2022-07-25T04:30:15;8.03;;;6.60;;
14754;SDS011;7469;50.906;6.952;2022-07-25T04:32:50;9.87;;;6.20;;
14754;SDS011;7469;50.906;6.952;2022-07-25T04:35:18;6.73;;;6.13;;
14754;SDS011;7469;50.906;6.952;2022-07-25T04:37:46;7.37;;;6.40;;
14754;SDS011;7469;50.906;6.952;2022-07-25T04:40:14;9.17;;;5.77;;
14754;SDS011;7469;50.906;6.952;2022-07-25T04:42:42;14.27;;;6.17;;
14754;SDS011;7469;50.906;6.952;2022-07-25T04:45:10;8.57;;;5.80;;
14754;SDS011;7469;50.906;6.952;2022-07-25T04:47:44;6.30;;;5.70;;
14754;SDS011;7469;50.906;6.952;2022-07-25T04:50:12;9.37;;;5.30;;
14754;SDS011;7469;50.906;6.952;2022-07-25T04:52:40;6.77;;;5.80;;
14754;SDS011;7469;50.906;6.952;2022-07-25T04:55:08;7.57;;;5.57;;
14754;SDS011;7469;50.906;6.952;2022-07-25T04:57:37;7.33;;;5.83;;
14754;SDS011;7469;50.906;6.952;2022-07-25T05:00:06;7.90;;;6.10;;
14754;SDS011;7469;50.906;6.952;2022-07-25T05:02:35;8.10;;;5.67;;
14754;SDS011;7469;50.906;6.952;2022-07-25T05:05:05;7.27;;;5.60;;
14754;SDS011;7469;50.906;6.952;2022-07-25T05:07:47;7.47;;;6.10;;
14754;SDS011;7469;50.906;6.952;2022-07-25T05:10:16;6.83;;;5.80;;
14754;SDS011;7469;50.906;6.952;2022-07-25T05:12:44;8.00;;;5.90;;
14754;SDS011;7469;50.906;6.952;2022-07-25T05:15:12;12.20;;;6.07;;
14754;SDS011;7469;50.906;6.952;2022-07-25T05:17:40;6.80;;;5.57;;
14754;SDS011;7469;50.906;6.952;2022-07-25T05:20:10;9.50;;;6.10;;
14754;SDS011;7469;50.906;6.952;2022-07-25T05:22:39;9.67;;;5.53;;
14754;SDS011;7469;50.906;6.952;2022-07-25T05:25:08;8.63;;;5.67;;
14754;SDS011;7469;50.906;6.952;2022-07-25T05:27:38;7.60;;;5.80;;
14754;SDS011;7469;50.906;6.952;2022-07-25T05:30:07;6.87;;;5.27;;
14754;SDS011;7469;50.906;6.952;2022-07-25T05:32:36;7.20;;;5.80;;
14754;SDS011;7469;50.906;6.952;2022-07-25T05:35:05;6.73;;;5.50;;
14754;SDS011;7469;50.906;6.952;2022-07-25T05:37:36;6.20;;;5.60;;
14754;SDS011;7469;50.906;6.952;2022-07-25T05:40:04;10.10;;;5.67;;
14754;SDS011;7469;50.906;6.952;2022-07-25T05:42:33;8.37;;;6.13;;
14754;SDS011;7469;50.906;6.952;2022-07-25T05:45:02;6.17;;;5.53;;
14754;SDS011;7469;50.906;6.952;2022-07-25T05:47:30;11.03;;;6.03;;
14754;SDS011;7469;50.906;6.952;2022-07-25T05:49:59;9.03;;;5.83;;
14754;SDS011;7469;50.906;6.952;2022-07-25T05:52:27;11.03;;;6.30;;
14754;SDS011;7469;50.906;6.952;2022-07-25T05:54:56;11.63;;;5.63;;
14754;SDS011;7469;50.906;6.952;2022-07-25T05:57:24;7.20;;;5.47;;
14754;SDS011;7469;50.906;6.952;2022-07-25T05:59:52;9.73;;;5.73;;
14754;SDS011;7469;50.906;6.952;2022-07-25T06:02:20;7.13;;;5.13;;
14754;SDS011;7469;50.906;6.952;2022-07-25T06:04:49;6.27;;;5.47;;
14754;SDS011;7469;50.906;6.952;2022-07-25T06:07:17;9.67;;;5.93;;
14754;SDS011;7469;50.906;6.952;2022-07-25T06:09:45;6.50;;;5.90;;
14754;SDS011;7469;50.906;6.952;2022-07-25T06:12:14;13.43;;;5.63;;
14754;SDS011;7469;50.906;6.952;2022-07-25T06:14:42;6.40;;;5.60;;
14754;SDS011;7469;50.906;6.952;2022-07-25T06:17:10;6.23;;;5.63;;
14754;SDS011;7469;50.906;6.952;2022-07-25T06:19:38;5.90;;;5.23;;
14754;SDS011;7469;50.906;6.952;2022-07-25T06:22:06;6.47;;;5.40;;
14754;SDS011;7469;50.906;6.952;2022-07-25T06:24:36;7.33;;;5.73;;
14754;SDS011;7469;50.906;6.952;2022-07-25T06:27:05;9.13;;;6.17;;
14754;SDS011;7469;50.906;6.952;2022-07-25T06:29:34;9.33;;;6.00;;
14754;SDS011;7469;50.906;6.952;2022-07-25T06:32:04;9.03;;;5.67;;
14754;SDS011;7469;50.906;6.952;2022-07-25T06:34:32;8.07;;;5.13;;
14754;SDS011;7469;50.906;6.952;2022-07-25T06:37:00;5.77;;;5.17;;
14754;SDS011;7469;50.906;6.952;2022-07-25T06:39:28;5.97;;;5.37;;
14754;SDS011;7469;50.906;6.952;2022-07-25T06:41:56;6.40;;;5.40;;
14754;SDS011;7469;50.906;6.952;2022-07-25T06:44:25;7.90;;;5.57;;
14754;SDS011;7469;50.906;6.952;2022-07-25T06:46:54;5.93;;;5.03;;
14754;SDS011;7469;50.906;6.952;2022-07-25T06:49:22;5.83;;;5.23;;
14754;SDS011;7469;50.906;6.952;2022-07-25T06:51:50;6.87;;;5.33;;
14754;SDS011;7469;50.906;6.952;2022-07-25T06:54:18;8.97;;;5.50;;
14754;SDS011;7469;50.906;6.952;2022-07-25T06:56:46;7.47;;;5.50;;
14754;SDS011;7469;50.906;6.952;2022-07-25T06:59:14;11.97;;;5.50;;
14754;SDS011;7469;50.906;6.952;2022-07-25T07:01:42;9.07;;;5.80;;
14754;SDS011;7469;50.906;6.952;2022-07-25T07:04:18;8.40;;;5.63;;
14754;SDS011;7469;50.906;6.952;2022-07-25T07:06:46;9.33;;;5.37;;
14754;SDS011;7469;50.906;6.952;2022-07-25T07:09:14;11.77;;;5.17;;
14754;SDS011;7469;50.906;6.952;2022-07-25T07:11:42;11.23;;;5.70;;
14754;SDS011;7469;50.906;6.952;2022-07-25T07:14:10;10.77;;;5.80;;
14754;SDS011;7469;50.906;6.952;2022-07-25T07:16:38;10.60;;;6.07;;
14754;SDS011;7469;50.906;6.952;2022-07-25T07:19:07;7.23;;;5.37;;
14754;SDS011;7469;50.906;6.952;2022-07-25T07:21:38;7.57;;;5.07;;
14754;SDS011;7469;50.906;6.952;2022-07-25T07:24:07;8.23;;;5.70;;
14754;SDS011;7469;50.906;6.952;2022-07-25T07:26:50;11.07;;;5.40;;
14754;SDS011;7469;50.906;6.952;2022-07-25T07:29:18;8.53;;;5.07;;
14754;SDS011;7469;50.906;6.952;2022-07-25T07:31:47;9.60;;;5.67;;
14754;SDS011;7469;50.906;6.952;2022-07-25T07:34:15;8.73;;;5.80;;
14754;SDS011;7469;50.906;6.952;2022-07-25T07:36:45;8.73;;;5.67;;
14754;SDS011;7469;50.906;6.952;2022-07-25T07:39:13;13.93;;;5.97;;
14754;SDS011;7469;50.906;6.952;2022-07-25T07:41:42;11.47;;;6.27;;
14754;SDS011;7469;50.906;6.952;2022-07-25T07:44:10;10.20;;;5.47;;
14754;SDS011;7469;50.906;6.952;2022-07-25T07:46:38;10.53;;;5.40;;
14754;SDS011;7469;50.906;6.952;2022-07-25T07:49:06;10.47;;;5.53;;
14754;SDS011;7469;50.906;6.952;2022-07-25T07:51:35;16.43;;;5.47;;
14754;SDS011;7469;50.906;6.952;2022-07-25T07:54:04;12.50;;;5.03;;
14754;SDS011;7469;50.906;6.952;2022-07-25T07:56:50;8.20;;;5.30;;
14754;SDS011;7469;50.906;6.952;2022-07-25T07:59:18;8.17;;;5.07;;
14754;SDS011;7469;50.906;6.952;2022-07-25T08:01:46;7.97;;;5.03;;
14754;SDS011;7469;50.906;6.952;2022-07-25T08:04:14;6.00;;;4.50;;
14754;SDS011;7469;50.906;6.952;2022-07-25T08:06:42;15.47;;;5.30;;
14754;SDS011;7469;50.906;6.952;2022-07-25T08:09:11;8.60;;;4.83;;
14754;SDS011;7469;50.906;6.952;2022-07-25T08:11:39;4.77;;;4.23;;
14754;SDS011;7469;50.906;6.952;2022-07-25T08:14:07;8.13;;;5.10;;
14754;SDS011;7469;50.906;6.952;2022-07-25T08:16:36;7.70;;;5.30;;
14754;SDS011;7469;50.906;6.952;2022-07-25T08:19:04;7.77;;;5.13;;
14754;SDS011;7469;50.906;6.952;2022-07-25T08:21:32;10.53;;;4.47;;
14754;SDS011;7469;50.906;6.952;2022-07-25T08:24:00;5.87;;;5.00;;
14754;SDS011;7469;50.906;6.952;2022-07-25T08:26:30;9.30;;;5.70;;
14754;SDS011;7469;50.906;6.952;2022-07-25T08:28:59;9.33;;;4.83;;
14754;SDS011;7469;50.906;6.952;2022-07-25T08:31:44;7.10;;;5.20;;
14754;SDS011;7469;50.906;6.952;2022-07-25T08:34:12;5.30;;;4.73;;
14754;SDS011;7469;50.906;6.952;2022-07-25T08:36:40;6.53;;;5.20;;
14754;SDS011;7469;50.906;6.952;2022-07-25T08:39:08;7.00;;;4.77;;
14754;SDS011;7469;50.906;6.952;2022-07-25T08:41:38;7.87;;;4.87;;
14754;SDS011;7469;50.906;6.952;2022-07-25T08:44:08;6.30;;;4.97;;
14754;SDS011;7469;50.906;6.952;2022-07-25T08:46:36;7.60;;;5.20;;
14754;SDS011;7469;50.906;6.952;2022-07-25T08:49:06;10.43;;;5.17;;
14754;SDS011;7469;50.906;6.952;2022-07-25T08:51:36;5.40;;;4.90;;
14754;SDS011;7469;50.906;6.952;2022-07-25T08:54:04;5.97;;;4.97;;
14754;SDS011;7469;50.906;6.952;2022-07-25T08:56:33;6.33;;;5.70;;
14754;SDS011;7469;50.906;6.952;2022-07-25T08:59:03;7.90;;;5.13;;
14754;SDS011;7469;50.906;6.952;2022-07-25T09:01:31;5.73;;;5.10;;
14754;SDS011;7469;50.906;6.952;2022-07-25T09:04:00;10.83;;;5.13;;
14754;SDS011;7469;50.906;6.952;2022-07-25T09:06:30;7.20;;;5.00;;
14754;SDS011;7469;50.906;6.952;2022-07-25T09:08:58;9.83;;;5.20;;
14754;SDS011;7469;50.906;6.952;2022-07-25T09:11:31;6.43;;;4.87;;
14754;SDS011;7469;50.906;6.952;2022-07-25T09:14:04;5.47;;;4.97;;
14754;SDS011;7469;50.906;6.952;2022-07-25T09:16:35;8.60;;;5.43;;
14754;SDS011;7469;50.906;6.952;2022-07-25T09:19:06;10.03;;;6.37;;
14754;SDS011;7469;50.906;6.952;2022-07-25T09:21:37;5.83;;;5.27;;
14754;SDS011;7469;50.906;6.952;2022-07-25T09:24:07;7.20;;;5.10;;
14754;SDS011;7469;50.906;6.952;2022-07-25T09:26:46;6.70;;;5.43;;
14754;SDS011;7469;50.906;6.952;2022-07-25T09:29:17;9.20;;;6.13;;
14754;SDS011;7469;50.906;6.952;2022-07-25T09:31:47;9.23;;;5.13;;
14754;SDS011;7469;50.906;6.952;2022-07-25T09:34:16;9.20;;;5.35;;
14754;SDS011;7469;50.906;6.952;2022-07-25T09:36:55;10.45;;;5.05;;
14754;SDS011;7469;50.906;6.952;2022-07-25T09:39:31;6.90;;;5.18;;
14754;SDS011;7469;50.906;6.952;2022-07-25T09:42:01;6.28;;;5.03;;
14754;SDS011;7469;50.906;6.952;2022-07-25T09:44:30;9.38;;;5.15;;
14754;SDS011;7469;50.906;6.952;2022-07-25T09:47:08;5.68;;;5.07;;
14754;SDS011;7469;50.906;6.952;2022-07-25T09:49:41;7.47;;;5.07;;
14754;SDS011;7469;50.906;6.952;2022-07-25T09:52:11;6.38;;;4.97;;
14754;SDS011;7469;50.906;6.952;2022-07-25T09:54:42;10.05;;;5.47;;
14754;SDS011;7469;50.906;6.952;2022-07-25T09:57:10;8.73;;;5.53;;
14754;SDS011;7469;50.906;6.952;2022-07-25T09:59:39;5.88;;;5.32;;
14754;SDS011;7469;50.906;6.952;2022-07-25T10:02:08;8.38;;;5.60;;
14754;SDS011;7469;50.906;6.952;2022-07-25T10:04:42;9.13;;;5.90;;
14754;SDS011;7469;50.906;6.952;2022-07-25T10:07:14;8.57;;;6.27;;
14754;SDS011;7469;50.906;6.952;2022-07-25T10:09:47;11.40;;;5.93;;
14754;SDS011;7469;50.906;6.952;2022-07-25T10:12:17;9.10;;;6.20;;
14754;SDS011;7469;50.906;6.952;2022-07-25T10:17:32;10.17;;;5.47;;
14754;SDS011;7469;50.906;6.952;2022-07-25T10:20:01;7.07;;;5.83;;
14754;SDS011;7469;50.906;6.952;2022-07-25T10:22:35;7.07;;;5.27;;
14754;SDS011;7469;50.906;6.952;2022-07-25T10:25:22;8.33;;;5.90;;
14754;SDS011;7469;50.906;6.952;2022-07-25T10:27:50;6.03;;;5.17;;
14754;SDS011;7469;50.906;6.952;2022-07-25T10:30:28;6.40;;;5.00;;
14754;SDS011;7469;50.906;6.952;2022-07-25T10:33:02;8.17;;;5.43;;
14754;SDS011;7469;50.906;6.952;2022-07-25T10:35:31;8.63;;;6.13;;
14754;SDS011;7469;50.906;6.952;2022-07-25T10:38:01;10.90;;;5.50;;
14754;SDS011;7469;50.906;6.952;2022-07-25T10:40:31;10.40;;;5.90;;
14754;SDS011;7469;50.906;6.952;2022-07-25T10:43:01;9.30;;;6.00;;
14754;SDS011;7469;50.906;6.952;2022-07-25T10:45:42;13.43;;;6.33;;
14754;SDS011;7469;50.906;6.952;2022-07-25T10:48:20;7.67;;;5.47;;
14754;SDS011;7469;50.906;6.952;2022-07-25T10:50:49;15.57;;;5.90;;
14754;SDS011;7469;50.906;6.952;2022-07-25T10:53:31;11.13;;;5.57;;
14754;SDS011;7469;50.906;6.952;2022-07-25T10:56:07;8.37;;;5.40;;
14754;SDS011;7469;50.906;6.952;2022-07-25T10:58:40;11.23;;;5.77;;
14754;SDS011;7469;50.906;6.952;2022-07-25T11:01:10;6.90;;;5.23;;
14754;SDS011;7469;50.906;6.952;2022-07-25T11:03:40;6.57;;;4.83;;
14754;SDS011;7469;50.906;6.952;2022-07-25T11:06:11;5.80;;;5.20;;
14754;SDS011;7469;50.906;6.952;2022-07-25T11:08:40;8.43;;;4.97;;
14754;SDS011;7469;50.906;6.952;2022-07-25T11:11:09;7.80;;;4.87;;
14754;SDS011;7469;50.906;6.952;2022-07-25T11:13:38;7.53;;;5.20;;
14754;SDS011;7469;50.906;6.952;2022-07-25T11:16:08;10.13;;;4.83;;
14754;SDS011;7469;50.906;6.952;2022-07-25T11:18:38;8.70;;;4.73;;
14754;SDS011;7469;50.906;6.952;2022-07-25T11:21:08;7.00;;;4.70;;
14754;SDS011;7469;50.906;6.952;2022-07-25T11:23:36;7.07;;;5.30;;
14754;SDS011;7469;50.906;6.952;2022-07-25T11:26:07;7.60;;;4.83;;
14754;SDS011;7469;50.906;6.952;2022-07-25T11:28:37;7.00;;;4.67;;
14754;SDS011;7469;50.906;6.952;2022-07-25T11:31:05;7.63;;;5.00;;
14754;SDS011;7469;50.906;6.952;2022-07-25T11:33:34;8.70;;;4.93;;
14754;SDS011;7469;50.906;6.952;2022-07-25T11:36:06;8.83;;;5.30;;
14754;SDS011;7469;50.906;6.952;2022-07-25T11:38:35;8.30;;;5.00;;
14754;SDS011;7469;50.906;6.952;2022-07-25T11:41:05;8.33;;;4.57;;
14754;SDS011;7469;50.906;6.952;2022-07-25T11:43:33;5.80;;;4.83;;
14754;SDS011;7469;50.906;6.952;2022-07-25T11:46:02;7.60;;;5.30;;
14754;SDS011;7469;50.906;6.952;2022-07-25T11:48:33;11.43;;;5.17;;
14754;SDS011;7469;50.906;6.952;2022-07-25T11:51:13;8.97;;;4.97;;
14754;SDS011;7469;50.906;6.952;2022-07-25T11:53:44;6.90;;;4.67;;
14754;SDS011;7469;50.906;6.952;2022-07-25T11:56:15;6.80;;;4.60;;
14754;SDS011;7469;50.906;6.952;2022-07-25T11:59:04;10.07;;;4.17;;
14754;SDS011;7469;50.906;6.952;2022-07-25T12:01:34;5.63;;;4.00;;
14754;SDS011;7469;50.906;6.952;2022-07-25T12:04:07;5.43;;;4.10;;
14754;SDS011;7469;50.906;6.952;2022-07-25T12:06:37;8.00;;;4.03;;
14754;SDS011;7469;50.906;6.952;2022-07-25T12:09:09;8.73;;;4.40;;
14754;SDS011;7469;50.906;6.952;2022-07-25T12:11:44;9.27;;;4.07;;
14754;SDS011;7469;50.906;6.952;2022-07-25T12:14:13;4.77;;;3.80;;
14754;SDS011;7469;50.906;6.952;2022-07-25T12:16:41;6.33;;;3.97;;
14754;SDS011;7469;50.906;6.952;2022-07-25T12:19:16;8.00;;;4.17;;
14754;SDS011;7469;50.906;6.952;2022-07-25T12:21:47;6.93;;;3.70;;
14754;SDS011;7469;50.906;6.952;2022-07-25T12:24:15;7.77;;;4.03;;
14754;SDS011;7469;50.906;6.952;2022-07-25T12:26:43;6.07;;;4.03;;
14754;SDS011;7469;50.906;6.952;2022-07-25T12:29:11;5.07;;;3.57;;
14754;SDS011;7469;50.906;6.952;2022-07-25T12:31:38;10.93;;;4.20;;
14754;SDS011;7469;50.906;6.952;2022-07-25T12:34:06;5.73;;;3.67;;
14754;SDS011;7469;50.906;6.952;2022-07-25T12:36:34;6.43;;;3.47;;
14754;SDS011;7469;50.906;6.952;2022-07-25T12:39:10;4.03;;;3.63;;
14754;SDS011;7469;50.906;6.952;2022-07-25T12:41:38;8.33;;;3.43;;
14754;SDS011;7469;50.906;6.952;2022-07-25T12:44:07;6.90;;;3.63;;
14754;SDS011;7469;50.906;6.952;2022-07-25T12:46:36;6.13;;;3.17;;
14754;SDS011;7469;50.906;6.952;2022-07-25T12:49:05;6.90;;;3.43;;
14754;SDS011;7469;50.906;6.952;2022-07-25T12:51:34;5.57;;;3.63;;
14754;SDS011;7469;50.906;6.952;2022-07-25T12:54:02;11.00;;;3.50;;
14754;SDS011;7469;50.906;6.952;2022-07-25T12:56:32;5.50;;;3.53;;
14754;SDS011;7469;50.906;6.952;2022-07-25T12:59:01;8.30;;;3.43;;
14754;SDS011;7469;50.906;6.952;2022-07-25T13:01:29;5.97;;;3.57;;
14754;SDS011;7469;50.906;6.952;2022-07-25T13:03:57;6.10;;;3.60;;
14754;SDS011;7469;50.906;6.952;2022-07-25T13:06:25;7.30;;;3.13;;
14754;SDS011;7469;50.906;6.952;2022-07-25T13:08:53;7.30;;;3.43;;
14754;SDS011;7469;50.906;6.952;2022-07-25T13:11:21;9.33;;;3.60;;
14754;SDS011;7469;50.906;6.952;2022-07-25T13:13:50;5.07;;;3.03;;
14754;SDS011;7469;50.906;6.952;2022-07-25T13:16:18;10.67;;;3.53;;
14754;SDS011;7469;50.906;6.952;2022-07-25T13:18:47;5.40;;;3.30;;
14754;SDS011;7469;50.906;6.952;2022-07-25T13:21:15;12.50;;;3.23;;
14754;SDS011;7469;50.906;6.952;2022-07-25T13:23:43;6.43;;;3.50;;
14754;SDS011;7469;50.906;6.952;2022-07-25T13:26:11;5.87;;;2.97;;
14754;SDS011;7469;50.906;6.952;2022-07-25T13:28:39;5.77;;;3.27;;
14754;SDS011;7469;50.906;6.952;2022-07-25T13:31:10;5.77;;;2.63;;
14754;SDS011;7469;50.906;6.952;2022-07-25T13:33:38;5.97;;;2.97;;
14754;SDS011;7469;50.906;6.952;2022-07-25T13:36:06;6.03;;;2.77;;
14754;SDS011;7469;50.906;6.952;2022-07-25T13:38:34;12.17;;;2.70;;
14754;SDS011;7469;50.906;6.952;2022-07-25T13:41:04;6.63;;;2.97;;
14754;SDS011;7469;50.906;6.952;2022-07-25T13:43:32;4.03;;;2.63;;
14754;SDS011;7469;50.906;6.952;2022-07-25T13:46:01;6.43;;;2.33;;
14754;SDS011;7469;50.906;6.952;2022-07-25T13:48:31;7.13;;;2.40;;
14754;SDS011;7469;50.906;6.952;2022-07-25T13:50:59;5.53;;;2.37;;
14754;SDS011;7469;50.906;6.952;2022-07-25T13:53:27;10.43;;;2.47;;
14754;SDS011;7469;50.906;6.952;2022-07-25T13:55:56;3.63;;;2.30;;
14754;SDS011;7469;50.906;6.952;2022-07-25T13:58:25;3.23;;;2.27;;
14754;SDS011;7469;50.906;6.952;2022-07-25T14:00:53;6.07;;;2.23;;
14754;SDS011;7469;50.906;6.952;2022-07-25T14:03:21;7.53;;;2.20;;
14754;SDS011;7469;50.906;6.952;2022-07-25T14:05:51;3.67;;;2.20;;
14754;SDS011;7469;50.906;6.952;2022-07-25T14:08:19;2.47;;;2.00;;
14754;SDS011;7469;50.906;6.952;2022-07-25T14:10:47;5.40;;;2.00;;
14754;SDS011;7469;50.906;6.952;2022-07-25T14:13:15;3.13;;;2.03;;
14754;SDS011;7469;50.906;6.952;2022-07-25T14:15:43;3.27;;;2.10;;
14754;SDS011;7469;50.906;6.952;2022-07-25T14:18:11;8.87;;;2.23;;
14754;SDS011;7469;50.906;6.952;2022-07-25T14:20:39;9.27;;;2.10;;
14754;SDS011;7469;50.906;6.952;2022-07-25T14:23:08;4.03;;;2.03;;
14754;SDS011;7469;50.906;6.952;2022-07-25T14:25:36;4.13;;;2.00;;
14754;SDS011;7469;50.906;6.952;2022-07-25T14:28:04;5.77;;;1.90;;
14754;SDS011;7469;50.906;6.952;2022-07-25T14:30:32;5.27;;;2.40;;
14754;SDS011;7469;50.906;6.952;2022-07-25T14:33:00;3.90;;;2.47;;
14754;SDS011;7469;50.906;6.952;2022-07-25T14:35:29;9.03;;;2.47;;
14754;SDS011;7469;50.906;6.952;2022-07-25T14:37:58;4.57;;;2.10;;
14754;SDS011;7469;50.906;6.952;2022-07-25T14:40:27;3.67;;;1.90;;
14754;SDS011;7469;50.906;6.952;2022-07-25T14:42:55;7.43;;;2.40;;
14754;SDS011;7469;50.906;6.952;2022-07-25T14:45:23;9.20;;;2.13;;
14754;SDS011;7469;50.906;6.952;2022-07-25T14:47:51;5.17;;;1.87;;
14754;SDS011;7469;50.906;6.952;2022-07-25T14:50:19;6.93;;;2.20;;
14754;SDS011;7469;50.906;6.952;2022-07-25T14:52:48;6.37;;;2.10;;
14754;SDS011;7469;50.906;6.952;2022-07-25T14:55:16;6.07;;;2.03;;
14754;SDS011;7469;50.906;6.952;2022-07-25T14:57:47;3.93;;;1.97;;
14754;SDS011;7469;50.906;6.952;2022-07-25T15:00:15;5.87;;;2.20;;
14754;SDS011;7469;50.906;6.952;2022-07-25T15:02:43;8.40;;;2.20;;
14754;SDS011;7469;50.906;6.952;2022-07-25T15:05:11;3.97;;;2.00;;
14754;SDS011;7469;50.906;6.952;2022-07-25T15:07:39;5.83;;;1.90;;
14754;SDS011;7469;50.906;6.952;2022-07-25T15:10:08;7.30;;;1.90;;
14754;SDS011;7469;50.906;6.952;2022-07-25T15:12:36;6.07;;;1.83;;
14754;SDS011;7469;50.906;6.952;2022-07-25T15:15:06;5.03;;;2.03;;